Time;durP1;ratioP1;P1;durP2;ratioP2;P2;SDS_P1;SDS_P2;PMS_P1;PMS_P2;Temp;Humidity;BMP_temperature;BMP_pressure;BME280_temperature;BME280_humidity;BME280_pressure;Samples;Min_cycle;Max_cycle;Signal;HPM_P1;HPM_P2
2022/01/23 00:00:05;;;;;;;31.85;17.33;;;;;;;-3.30;85.42;99786.09;5049940;28;20040;-54
2022/01/23 00:02:34;;;;;;;29.55;17.38;;;;;;;-3.14;85.03;99792.56;5037791;28;20052;-55
2022/01/23 00:05:06;;;;;;;25.88;15.13;;;;;;;-3.35;85.22;99797.72;5047126;28;20021;-55
2022/01/23 00:07:33;;;;;;;27.13;15.65;;;;;;;-3.35;85.33;99798.59;5055727;28;20035;-56
2022/01/23 00:10:00;;;;;;;28.00;15.98;;;;;;;-3.23;85.09;99807.44;5043835;28;20041;-54
2022/01/23 00:12:28;;;;;;;29.92;15.75;;;;;;;-3.57;85.85;99796.94;5059806;28;20027;-55
2022/01/23 00:17:38;;;;;;;33.90;18.52;;;;;;;-3.27;85.48;99800.53;5092503;28;20033;-56
2022/01/23 00:20:07;;;;;;;34.08;18.50;;;;;;;-3.50;85.12;99738.13;5060201;28;20060;-56
2022/01/23 00:22:41;;;;;;;35.78;18.80;;;;;;;-3.03;84.67;99808.16;5058138;28;20025;-55
2022/01/23 00:30:40;;;;;;;31.60;17.95;;;;;;;-3.20;84.65;99825.28;5057939;28;20036;-56
2022/01/23 00:33:07;;;;;;;35.47;20.05;;;;;;;-3.08;84.84;99825.69;5052482;28;20044;-55
2022/01/23 00:35:35;;;;;;;33.03;18.70;;;;;;;-3.37;84.76;99807.78;5053681;28;20040;-55
2022/01/23 00:38:01;;;;;;;33.10;18.88;;;;;;;-3.03;84.54;99834.34;5050032;28;20342;-56
2022/01/23 00:40:28;;;;;;;34.50;19.60;;;;;;;-2.99;84.20;99835.31;5049641;28;20078;-55
2022/01/23 00:42:55;;;;;;;32.67;18.92;;;;;;;-3.03;83.70;99847.00;5057869;28;20048;-56
2022/01/23 00:45:33;;;;;;;35.28;19.73;;;;;;;-2.98;84.23;99842.09;5057861;28;20033;-56
2022/01/23 00:48:08;;;;;;;35.13;18.20;;;;;;;-3.11;84.38;99858.50;5044982;28;20025;-56
2022/01/23 00:50:39;;;;;;;31.92;18.40;;;;;;;-3.15;84.79;99851.59;5043885;28;20036;-55
2022/01/23 00:53:11;;;;;;;31.30;18.50;;;;;;;-3.26;85.02;99850.34;5044078;28;20021;-55
2022/01/23 00:55:38;;;;;;;30.98;18.95;;;;;;;-3.60;85.21;99758.00;5041957;28;20080;-54
2022/01/23 00:58:03;;;;;;;32.80;19.55;;;;;;;-3.32;85.15;99841.75;5056191;28;20298;-55
2022/01/23 01:00:29;;;;;;;28.10;15.75;;;;;;;-3.41;85.29;99845.59;5032165;28;20093;-55
2022/01/23 01:02:55;;;;;;;37.90;19.35;;;;;;;-3.41;85.12;99843.91;5055340;28;20062;-55
2022/01/23 01:05:21;;;;;;;32.35;18.63;;;;;;;-3.20;84.76;99850.59;5046706;28;20043;-55
2022/01/23 01:07:47;;;;;;;35.67;18.20;;;;;;;-3.30;84.77;99851.94;5051825;28;20025;-54
2022/01/23 01:10:21;;;;;;;31.08;17.58;;;;;;;-3.49;84.97;99847.84;5050012;28;20060;-55
2022/01/23 01:12:49;;;;;;;34.17;19.70;;;;;;;-3.26;85.20;99855.41;5043156;28;20057;-55
2022/01/23 01:31:36;;;;;;;33.22;19.80;;;;;;;-3.14;84.21;99876.13;5052865;28;20214;-56
2022/01/23 01:34:14;;;;;;;33.95;19.55;;;;;;;-2.97;84.14;99884.34;5041281;28;20044;-56
2022/01/23 01:39:13;;;;;;;31.45;18.75;;;;;;;-3.08;83.89;99883.94;5043194;28;20318;-55
2022/01/23 01:41:40;;;;;;;34.95;19.65;;;;;;;-3.03;84.51;99877.41;5042267;28;20041;-55
2022/01/23 01:44:06;;;;;;;32.50;19.38;;;;;;;-3.03;83.91;99887.53;5062426;28;20253;-54
2022/01/23 01:46:32;;;;;;;30.95;17.42;;;;;;;-3.10;83.57;99888.13;5063628;28;20033;-54
2022/01/23 01:48:58;;;;;;;29.85;17.25;;;;;;;-3.15;84.21;99889.59;5053517;28;20033;-55
2022/01/23 01:51:29;;;;;;;30.92;18.50;;;;;;;-3.18;84.40;99895.44;5054811;28;20033;-55
2022/01/23 01:54:02;;;;;;;30.77;19.80;;;;;;;-3.20;84.34;99897.03;5055304;28;20090;-55
2022/01/23 01:56:34;;;;;;;28.65;18.17;;;;;;;-3.45;84.18;99899.44;5045147;28;20092;-55
2022/01/23 01:59:23;;;;;;;30.10;18.23;;;;;;;-3.41;84.64;99919.88;5053000;28;20202;-56
2022/01/23 02:09:43;;;;;;;29.90;18.30;;;;;;;-3.32;84.82;99930.38;5046693;28;20084;-55
2022/01/23 02:50:44;;;;;;;27.08;16.92;;;;;;;-3.32;85.03;100024.06;5052678;28;20094;-56
2022/01/23 02:55:58;;;;;;;27.52;16.70;;;;;;;-3.59;85.95;100031.41;5054240;28;20037;-55
2022/01/23 02:58:31;;;;;;;28.65;17.45;;;;;;;-3.52;85.68;100032.50;5059814;28;20037;-56
2022/01/23 03:03:58;;;;;;;29.38;16.70;;;;;;;-3.41;84.98;100035.47;5050652;28;20049;-55
2022/01/23 03:06:49;;;;;;;;;;;;;;;-3.47;86.13;100043.69;5053015;28;20221;-56
2022/01/23 03:30:23;;;;;;;29.35;15.13;;;;;;;-3.53;84.95;100078.88;5053079;28;20032;-55
2022/01/23 03:32:51;;;;;;;30.55;17.55;;;;;;;-3.40;85.78;100077.72;5045054;28;20102;-56
2022/01/23 03:35:18;;;;;;;27.10;16.17;;;;;;;-3.36;84.97;100085.50;5044807;28;20033;-56
2022/01/23 03:37:46;;;;;;;31.35;17.95;;;;;;;-3.33;84.90;100087.28;5043728;28;20342;-54
2022/01/23 03:40:12;;;;;;;26.02;17.48;;;;;;;-3.27;84.79;100085.00;5061047;28;20047;-56
2022/01/23 03:42:41;;;;;;;30.33;18.50;;;;;;;-3.20;84.54;100097.09;5061355;28;20052;-56
2022/01/23 03:49:29;;;;;;;28.90;18.52;;;;;;;-3.20;83.26;100098.78;5058892;28;20037;-56
2022/01/23 03:50:30;;;;;;;28.70;16.77;;;;;;;-3.06;83.91;100124.69;5058907;28;20037;-56
2022/01/23 03:52:56;;;;;;;29.48;17.60;;;;;;;-3.25;83.98;100115.44;5045355;28;20025;-55
2022/01/23 03:55:21;;;;;;;26.30;16.38;;;;;;;-3.17;83.26;100129.31;5045712;28;20241;-55
2022/01/23 03:57:47;;;;;;;29.17;15.77;;;;;;;-3.26;83.67;100129.78;5052238;28;20028;-55
2022/01/23 04:00:16;;;;;;;29.27;17.33;;;;;;;-3.30;84.40;100138.06;5051783;28;20055;-55
2022/01/23 04:02:43;;;;;;;25.80;16.00;;;;;;;-3.33;83.87;100133.72;5048166;28;20023;-55
2022/01/23 04:05:09;;;;;;;25.45;15.82;;;;;;;-3.24;83.30;100142.50;5058607;28;20225;-55
2022/01/23 04:07:36;;;;;;;26.02;16.05;;;;;;;-3.31;83.82;100154.94;5057982;28;20018;-55
2022/01/23 04:10:02;;;;;;;25.20;15.27;;;;;;;-3.41;83.11;100152.78;5059717;28;20029;-56
2022/01/23 04:34:13;;;;;;;25.13;15.55;;;;;;;-3.46;83.03;100187.19;5041876;28;20033;-56
2022/01/23 05:01:04;;;;;;;29.17;17.23;;;;;;;-3.30;83.04;100224.16;5059393;28;20029;-56
2022/01/23 05:06:05;;;;;;;29.42;17.70;;;;;;;-3.12;82.48;100235.06;5056008;28;20040;-56
2022/01/23 05:08:34;;;;;;;30.10;17.30;;;;;;;-3.02;82.35;100245.56;5055602;28;20306;-56
2022/01/23 05:11:02;;;;;;;30.77;18.17;;;;;;;-3.03;82.09;100244.72;5057619;28;20033;-56
2022/01/23 05:13:28;;;;;;;31.63;17.08;;;;;;;-2.96;81.98;100246.72;5049332;28;20033;-56
2022/01/23 05:15:54;;;;;;;29.95;17.35;;;;;;;-3.19;81.95;100245.75;5049545;28;20036;-55
2022/01/23 05:18:20;;;;;;;26.08;15.60;;;;;;;-3.22;81.96;100252.31;5059031;28;20071;-55
2022/01/23 05:20:49;;;;;;;29.25;16.85;;;;;;;-3.18;82.00;100262.69;5059505;28;20037;-55
2022/01/23 05:23:15;;;;;;;23.50;15.48;;;;;;;-3.09;81.44;100267.28;5047371;28;20285;-56
2022/01/23 05:25:41;;;;;;;28.40;16.20;;;;;;;-3.38;81.93;100271.06;5062581;28;20033;-56
2022/01/23 05:28:08;;;;;;;27.38;15.73;;;;;;;-3.37;81.88;100276.19;5062825;28;20036;-56
2022/01/23 05:30:35;;;;;;;25.38;15.70;;;;;;;-3.36;82.04;100288.06;5046326;28;20034;-56
2022/01/23 05:33:00;;;;;;;26.08;15.27;;;;;;;-3.47;83.07;100289.25;5043275;28;20200;-56
2022/01/23 05:35:29;;;;;;;29.65;16.80;;;;;;;-3.38;82.55;100287.09;5043273;28;20037;-56
2022/01/23 05:37:55;;;;;;;29.67;17.08;;;;;;;-3.23;82.56;100293.66;5056514;28;20033;-56
2022/01/23 05:40:23;;;;;;;27.27;16.27;;;;;;;-3.46;81.76;100268.19;5053680;28;20060;-55
2022/01/23 05:42:49;;;;;;;24.95;15.93;;;;;;;-3.35;81.29;100296.50;5052543;28;20048;-55
2022/01/23 05:45:14;;;;;;;27.33;15.93;;;;;;;-3.48;82.31;100305.22;5059963;28;20060;-55
2022/01/23 05:47:40;;;;;;;29.08;17.13;;;;;;;-3.27;82.13;100317.13;5060014;28;20100;-56
2022/01/23 05:50:07;;;;;;;26.10;15.57;;;;;;;-3.52;82.78;100313.47;5045339;28;20075;-56
2022/01/23 05:52:32;;;;;;;27.67;16.83;;;;;;;-3.44;82.45;100323.97;5038055;28;20262;-56
2022/01/23 05:54:58;;;;;;;24.85;15.82;;;;;;;-3.47;82.32;100330.59;5046785;28;20037;-56
2022/01/23 05:57:24;;;;;;;28.17;17.42;;;;;;;-3.48;82.41;100330.53;5061231;28;20032;-56
2022/01/23 05:59:50;;;;;;;27.08;17.20;;;;;;;-3.37;81.83;100342.03;5060886;28;20079;-56
2022/01/23 06:02:16;;;;;;;28.38;17.08;;;;;;;-3.36;82.24;100330.25;5050456;28;20033;-56
2022/01/23 06:04:42;;;;;;;28.08;16.70;;;;;;;-3.48;82.26;100341.56;5045188;28;20022;-56
2022/01/23 06:07:07;;;;;;;29.50;16.67;;;;;;;-3.59;83.09;100351.97;5052079;28;20040;-55
2022/01/23 06:09:36;;;;;;;27.55;15.82;;;;;;;-3.47;82.35;100357.59;5056036;28;20028;-56
2022/01/23 06:12:02;;;;;;;29.35;17.88;;;;;;;-3.31;82.32;100361.69;5046462;28;20031;-56
2022/01/23 06:14:27;;;;;;;27.70;16.45;;;;;;;-3.33;81.76;100365.84;5045722;28;20030;-55
2022/01/23 06:16:53;;;;;;;29.90;16.65;;;;;;;-3.30;81.62;100366.81;5062538;28;20395;-56
2022/01/23 06:19:19;;;;;;;26.98;16.40;;;;;;;-3.20;81.45;100377.38;5059459;28;20100;-54
2022/01/23 06:21:45;;;;;;;26.58;16.27;;;;;;;-3.18;81.23;100380.84;5059716;28;20044;-55
2022/01/23 06:24:22;;;;;;;29.52;16.80;;;;;;;-3.15;80.86;100386.03;5047049;28;20041;-55
2022/01/23 06:26:50;;;;;;;26.65;16.75;;;;;;;-3.14;80.73;100382.72;5042180;28;20095;-55
2022/01/23 06:29:17;;;;;;;32.45;16.33;;;;;;;-3.16;80.69;100382.66;5054616;28;20033;-55
2022/01/23 06:31:48;;;;;;;27.00;14.85;;;;;;;-3.20;80.54;100393.44;5051390;28;20121;-55
2022/01/23 06:34:16;;;;;;;27.70;14.77;;;;;;;-3.87;80.34;100338.03;5050632;28;20031;-54
2022/01/23 06:36:43;;;;;;;25.23;15.65;;;;;;;-3.59;80.77;100393.34;5059827;28;20029;-55
2022/01/23 06:39:11;;;;;;;24.45;15.65;;;;;;;-3.78;81.56;100330.84;5059984;28;20029;-55
2022/01/23 06:41:38;;;;;;;27.00;15.38;;;;;;;-3.41;81.10;100393.31;5059453;28;20037;-55
2022/01/23 06:44:05;;;;;;;27.38;15.65;;;;;;;-3.36;80.63;100412.13;5044731;28;20033;-57
2022/01/23 06:46:31;;;;;;;25.55;16.60;;;;;;;-3.36;80.88;100393.56;5061021;28;20029;-56
2022/01/23 06:48:57;;;;;;;26.20;15.82;;;;;;;-3.24;80.54;100414.34;5056221;28;20037;-55
2022/01/23 06:51:23;;;;;;;24.00;15.38;;;;;;;-3.20;80.50;100422.97;5056287;28;20025;-54
2022/01/23 06:53:48;;;;;;;25.23;15.30;;;;;;;-3.55;81.42;100419.66;5056195;28;20051;-56
2022/01/23 06:56:14;;;;;;;24.42;14.82;;;;;;;-3.61;81.26;100430.34;5054092;28;20079;-55
2022/01/23 06:58:39;;;;;;;24.95;15.90;;;;;;;-3.66;81.09;100444.47;5043484;28;20329;-55
2022/01/23 07:01:07;;;;;;;30.33;16.38;;;;;;;-3.53;81.22;100445.94;5044001;28;20025;-56
2022/01/23 07:03:35;;;;;;;26.05;16.77;;;;;;;-4.64;81.08;100291.34;5043021;28;20334;-56
2022/01/23 07:06:02;;;;;;;27.20;17.08;;;;;;;-3.57;81.27;100457.56;5044320;28;20092;-54
2022/01/23 07:08:27;;;;;;;28.77;16.98;;;;;;;-3.46;80.43;100465.66;5041825;28;20029;-56
2022/01/23 07:10:53;;;;;;;27.05;16.58;;;;;;;-3.44;80.62;100459.00;5042762;28;20041;-54
2022/01/23 07:13:18;;;;;;;42.95;22.55;;;;;;;-3.47;80.83;100459.72;5044289;28;20037;-56
2022/01/23 07:15:44;;;;;;;32.70;17.90;;;;;;;-3.41;80.40;100461.69;5044163;28;20311;-55
2022/01/23 07:18:10;;;;;;;33.80;16.92;;;;;;;-3.38;80.19;100468.56;5042733;28;20033;-55
2022/01/23 07:20:36;;;;;;;29.48;16.95;;;;;;;-3.47;81.26;100462.25;5044927;28;20187;-56
2022/01/23 07:23:02;;;;;;;32.50;18.40;;;;;;;-3.33;81.20;100470.50;5044455;28;20025;-55
2022/01/23 07:25:28;;;;;;;35.20;19.73;;;;;;;-3.26;80.42;100475.84;5044127;28;20029;-54
2022/01/23 07:27:57;;;;;;;31.80;17.75;;;;;;;-3.32;81.76;100463.78;5042605;28;20026;-55
2022/01/23 07:30:35;;;;;;;31.98;18.52;;;;;;;-3.04;80.67;100473.53;5043608;28;20063;-55
2022/01/23 07:33:01;;;;;;;27.30;15.57;;;;;;;-3.40;80.13;100478.63;5041578;28;20087;-55
2022/01/23 07:35:27;;;;;;;29.55;18.88;;;;;;;-3.36;81.00;100480.50;5042297;28;20025;-56
2022/01/23 07:37:52;;;;;;;31.38;17.33;;;;;;;-3.15;80.82;100488.25;5042803;28;20029;-55
2022/01/23 07:40:19;;;;;;;36.08;18.95;;;;;;;-3.06;80.26;100492.00;5042626;28;20057;-56
2022/01/23 07:42:45;;;;;;;31.65;18.08;;;;;;;-2.95;81.00;100480.69;5044917;28;20071;-55
2022/01/23 07:45:11;;;;;;;31.85;18.50;;;;;;;-3.09;79.96;100497.78;5046433;28;20049;-54
2022/01/23 07:47:37;;;;;;;31.23;18.35;;;;;;;-3.24;80.50;100495.41;5042174;28;20222;-55
2022/01/23 07:50:06;;;;;;;34.25;18.75;;;;;;;-3.26;79.66;100499.53;5043028;28;20039;-55
2022/01/23 07:52:35;;;;;;;33.88;18.00;;;;;;;-3.38;80.39;100509.06;5043229;28;20234;-56
2022/01/23 07:55:06;;;;;;;30.42;18.35;;;;;;;-3.71;80.50;100434.09;5043429;28;20037;-56
2022/01/23 07:57:33;;;;;;;31.95;19.77;;;;;;;-3.22;80.05;100503.06;5042468;28;20033;-54
2022/01/23 07:59:59;;;;;;;30.25;17.40;;;;;;;-3.27;80.28;100507.06;5043229;28;20032;-54
2022/01/23 08:02:25;;;;;;;32.28;18.83;;;;;;;-3.22;80.01;100509.03;5040862;28;20084;-55
2022/01/23 08:04:50;;;;;;;33.15;18.63;;;;;;;-3.17;79.65;100519.38;5041156;28;20056;-55
2022/01/23 08:07:31;;;;;;;31.10;18.48;;;;;;;-3.02;79.53;100525.16;5060093;28;20025;-57
2022/01/23 08:10:03;;;;;;;28.73;18.15;;;;;;;-2.93;79.30;100514.56;5042892;28;20049;-57
2022/01/23 08:12:31;;;;;;;30.50;17.33;;;;;;;-3.51;78.85;100477.22;5057726;28;20063;-56
2022/01/23 08:14:57;;;;;;;29.90;18.15;;;;;;;-3.34;80.22;100543.88;5045084;28;20326;-55
2022/01/23 08:17:24;;;;;;;32.50;18.92;;;;;;;-3.00;80.14;100543.81;5040131;28;20041;-55
2022/01/23 08:20:00;;;;;;;29.88;18.15;;;;;;;-2.88;79.84;100555.31;5044288;28;20101;-56
2022/01/23 08:22:27;;;;;;;31.83;19.20;;;;;;;-2.98;79.32;100566.69;5040432;28;20092;-56
2022/01/23 08:24:55;;;;;;;42.75;20.02;;;;;;;-2.92;79.32;100568.66;5043621;28;20111;-55
2022/01/23 08:27:24;;;;;;;33.10;18.08;;;;;;;-3.08;78.80;100567.06;5041342;28;20047;-56
2022/01/23 08:29:50;;;;;;;27.80;17.60;;;;;;;-2.79;79.39;100573.53;5043165;28;20032;-56
2022/01/23 08:32:16;;;;;;;31.30;18.52;;;;;;;-2.68;79.21;100574.88;5042315;28;20025;-55
2022/01/23 08:34:41;;;;;;;35.78;19.65;;;;;;;-2.75;78.14;100587.19;5041048;28;20147;-56
2022/01/23 08:37:08;;;;;;;31.75;19.35;;;;;;;-2.66;78.63;100592.69;5041130;28;20021;-56
2022/01/23 08:39:36;;;;;;;30.70;19.20;;;;;;;-3.02;78.20;100549.59;5040787;28;20037;-56
2022/01/23 08:42:11;;;;;;;32.33;19.48;;;;;;;-2.69;79.25;100625.53;5040885;28;20079;-55
2022/01/23 08:44:37;;;;;;;29.55;19.15;;;;;;;-2.45;79.60;100600.44;5041402;28;20041;-55
2022/01/23 08:47:05;;;;;;;35.05;19.85;;;;;;;-2.49;78.63;100607.03;5041763;28;20038;-55
2022/01/23 08:49:32;;;;;;;32.38;19.65;;;;;;;-2.63;78.12;100610.59;5040587;28;20316;-55
2022/01/23 08:51:58;;;;;;;32.03;18.90;;;;;;;-2.52;78.54;100613.59;5038616;28;20075;-56
2022/01/23 08:54:27;;;;;;;33.75;19.35;;;;;;;-2.58;78.33;100598.97;5040294;28;20446;-56
2022/01/23 08:56:53;;;;;;;32.22;19.35;;;;;;;-2.33;78.10;100630.56;5041786;28;20036;-56
2022/01/23 08:59:18;;;;;;;31.88;18.80;;;;;;;-2.35;77.67;100622.88;5041880;28;20031;-58
2022/01/23 09:01:45;;;;;;;29.35;18.23;;;;;;;-2.19;78.48;100629.50;5040713;28;20060;-57
2022/01/23 09:04:15;;;;;;;37.67;22.48;;;;;;;-2.14;77.38;100629.72;5040573;28;20376;-56
2022/01/23 09:06:42;;;;;;;27.08;18.00;;;;;;;-2.23;77.69;100627.63;5041515;28;20095;-56
2022/01/23 09:09:14;;;;;;;32.63;18.52;;;;;;;-2.11;77.83;100634.94;5040437;28;20314;-57
2022/01/23 09:11:52;;;;;;;29.67;18.63;;;;;;;-1.95;77.45;100639.91;5040896;28;20032;-57
2022/01/23 09:14:20;;;;;;;31.98;18.88;;;;;;;-1.88;76.69;100640.16;5043616;28;20310;-57
2022/01/23 09:16:46;;;;;;;29.08;17.40;;;;;;;-1.85;77.14;100646.25;5043160;28;20037;-57
2022/01/23 09:19:12;;;;;;;34.78;19.95;;;;;;;-1.86;77.21;100630.97;5043086;28;20032;-58
2022/01/23 09:21:39;;;;;;;32.15;19.42;;;;;;;-1.76;76.26;100636.50;5042692;28;20045;-57
2022/01/23 09:24:06;;;;;;;30.05;18.55;;;;;;;-1.90;74.91;100655.34;5042209;28;20029;-58
2022/01/23 09:26:33;;;;;;;32.35;18.65;;;;;;;-1.84;74.96;100647.13;5041695;28;20061;-57
2022/01/23 09:29:01;;;;;;;30.95;19.23;;;;;;;-2.00;74.57;100654.03;5041780;28;20029;-57
2022/01/23 09:31:48;;;;;;;35.33;18.50;;;;;;;-2.18;75.19;100659.16;5039656;28;20093;-56
2022/01/23 09:34:21;;;;;;;36.47;20.33;;;;;;;-2.06;75.79;100666.47;5039488;28;20092;-59
2022/01/23 09:36:47;;;;;;;34.13;19.65;;;;;;;-2.20;76.29;100663.28;5038327;28;20094;-57
2022/01/23 09:39:15;;;;;;;31.35;19.25;;;;;;;-2.15;76.45;100645.72;5041151;28;20033;-57
2022/01/23 09:41:50;;;;;;;31.30;18.95;;;;;;;-2.14;76.34;100662.69;5043169;28;20041;-57
2022/01/23 09:44:18;;;;;;;30.50;18.52;;;;;;;-2.04;76.67;100680.09;5042260;28;20025;-57
2022/01/23 09:46:46;;;;;;;31.88;18.98;;;;;;;-2.14;75.84;100629.72;5039751;28;20085;-57
2022/01/23 09:49:16;;;;;;;29.08;17.67;;;;;;;-2.23;75.96;100654.69;5040756;28;20037;-56
2022/01/23 09:51:45;;;;;;;31.73;19.80;;;;;;;-2.02;76.82;100662.38;5038950;28;20401;-57
2022/01/23 09:54:12;;;;;;;31.67;18.52;;;;;;;-2.15;75.91;100666.03;5041483;28;20148;-56
2022/01/23 09:56:40;;;;;;;29.98;19.13;;;;;;;-2.17;76.06;100688.81;5040416;28;20033;-57
2022/01/23 09:59:08;;;;;;;30.63;18.42;;;;;;;-2.19;76.44;100692.94;5040035;28;20041;-57
2022/01/23 10:01:34;;;;;;;33.25;18.48;;;;;;;-2.13;76.39;100698.28;5040587;28;20309;-56
2022/01/23 10:04:00;;;;;;;32.97;18.73;;;;;;;-2.06;76.13;100686.78;5040893;28;20041;-58
2022/01/23 10:06:25;;;;;;;29.13;18.15;;;;;;;-2.06;76.36;100702.00;5043673;28;20068;-57
2022/01/23 10:08:52;;;;;;;30.85;17.83;;;;;;;-2.32;75.98;100713.47;5044234;28;20079;-55
2022/01/23 10:11:18;;;;;;;28.65;18.00;;;;;;;-2.30;76.30;100691.56;5048164;28;20029;-57
2022/01/23 10:13:43;;;;;;;26.20;16.55;;;;;;;-2.23;75.07;100700.34;5045111;28;20047;-57
2022/01/23 10:16:09;;;;;;;26.23;17.50;;;;;;;-2.13;76.06;100710.13;5043266;28;20029;-56
2022/01/23 10:18:35;;;;;;;29.58;16.27;;;;;;;-2.10;75.26;100720.41;5042621;28;20033;-56
2022/01/23 10:21:01;;;;;;;31.42;17.85;;;;;;;-2.06;75.41;100717.22;5043134;28;20032;-56
2022/01/23 10:23:27;;;;;;;24.75;15.82;;;;;;;-1.99;75.64;100716.69;5044049;28;20029;-56
2022/01/23 10:25:53;;;;;;;25.67;17.40;;;;;;;-1.89;76.95;100714.59;5042427;28;20072;-60
2022/01/23 10:28:23;;;;;;;29.98;18.20;;;;;;;-2.21;76.63;100651.41;5043688;28;20033;-57
2022/01/23 10:30:53;;;;;;;27.70;16.90;;;;;;;-1.70;76.39;100726.44;5044237;28;20087;-56
2022/01/23 10:33:23;;;;;;;26.40;16.52;;;;;;;-1.59;75.96;100717.63;5043682;28;20095;-57
2022/01/23 10:36:11;;;;;;;25.35;16.92;;;;;;;-1.53;76.94;100712.81;5043084;28;20040;-57
2022/01/23 10:39:01;;;;;;;26.20;15.18;;;;;;;-1.44;75.75;100717.44;5044429;28;20044;-56
2022/01/23 10:49:58;;;;;;;23.05;16.60;;;;;;;-1.90;74.65;100741.63;5040985;28;20049;-56
2022/01/23 10:52:25;;;;;;;27.42;16.67;;;;;;;-1.69;75.48;100751.91;5042183;28;20037;-56
2022/01/23 10:54:50;;;;;;;25.13;16.08;;;;;;;-1.78;74.77;100739.66;5045410;28;20087;-57
2022/01/23 10:57:16;;;;;;;25.80;16.17;;;;;;;-1.84;73.96;100752.09;5043345;28;20025;-56
2022/01/23 10:59:47;;;;;;;27.88;17.73;;;;;;;-2.27;75.52;100692.59;5043999;28;20076;-57
2022/01/23 11:02:23;;;;;;;28.10;16.80;;;;;;;-1.92;74.53;100751.72;5042951;28;20029;-57
2022/01/23 11:05:00;;;;;;;26.90;17.05;;;;;;;-1.71;74.92;100748.44;5045442;28;20041;-57
2022/01/23 11:07:28;;;;;;;26.60;16.42;;;;;;;-1.77;76.03;100755.75;5043969;28;20033;-57
2022/01/23 11:10:15;;;;;;;27.58;17.42;;;;;;;-1.97;74.35;100758.25;5052770;28;20036;-56
2022/01/23 11:18:21;;;;;;;28.05;16.38;;;;;;;-1.63;74.98;100772.50;5043578;28;20114;-57
2022/01/23 11:20:50;;;;;;;24.88;16.05;;;;;;;-1.90;74.52;100789.88;5043774;28;20033;-56
2022/01/23 11:23:17;;;;;;;26.13;16.85;;;;;;;-2.10;75.01;100777.09;5044609;28;20037;-57
2022/01/23 11:25:52;;;;;;;27.95;17.15;;;;;;;-2.23;75.94;100777.31;5050317;28;20063;-57
2022/01/23 11:28:19;;;;;;;28.48;17.02;;;;;;;-2.18;75.16;100785.16;5059049;28;20033;-57
2022/01/23 11:30:48;;;;;;;27.25;17.25;;;;;;;-2.70;76.39;100726.03;5049374;28;20025;-58
2022/01/23 11:33:18;;;;;;;29.88;16.95;;;;;;;-2.15;75.59;100801.41;5044524;28;20041;-57
2022/01/23 11:35:47;;;;;;;26.50;17.55;;;;;;;-2.21;75.72;100805.31;5044990;28;20033;-59
2022/01/23 11:38:19;;;;;;;27.15;17.75;;;;;;;-2.16;76.42;100819.09;5036348;28;20380;-59
2022/01/23 11:54:54;;;;;;;31.05;19.42;;;;;;;-1.79;75.13;100813.22;5042609;28;20030;-57
2022/01/23 11:57:42;;;;;;;32.42;19.42;;;;;;;-2.08;76.88;100755.22;5041409;28;20053;-58
2022/01/23 12:00:16;;;;;;;28.67;18.77;;;;;;;-1.64;76.60;100819.03;5042878;28;20021;-56
2022/01/23 12:02:44;;;;;;;31.85;19.02;;;;;;;-1.93;75.82;100764.34;5040527;28;20037;-57
2022/01/23 12:05:20;;;;;;;29.95;18.10;;;;;;;-1.52;75.41;100810.22;5042670;28;20026;-56
2022/01/23 12:08:27;;;;;;;29.40;18.90;;;;;;;-1.56;75.76;100815.16;5043039;28;20206;-57
2022/01/23 12:16:32;;;;;;;31.85;19.85;;;;;;;-1.58;74.98;100838.75;5041467;28;19913;-60
2022/01/23 12:19:18;;;;;;;33.83;19.83;;;;;;;-1.88;74.78;100839.06;5041291;28;20387;-56
2022/01/23 12:21:45;;;;;;;33.38;20.52;;;;;;;-1.88;75.33;100838.16;5041553;28;20086;-58
2022/01/23 12:24:13;;;;;;;33.72;20.67;;;;;;;-1.79;76.63;100846.22;5042101;28;20037;-56
2022/01/23 12:26:39;;;;;;;36.35;19.90;;;;;;;-1.73;75.86;100861.75;5043713;28;20032;-56
2022/01/23 12:29:13;;;;;;;32.42;19.58;;;;;;;-1.63;76.94;100865.59;5043674;28;20029;-58
2022/01/23 12:31:40;;;;;;;28.27;18.73;;;;;;;-1.59;76.29;100872.56;5043132;28;20033;-57
2022/01/23 12:34:06;;;;;;;29.98;19.38;;;;;;;-1.63;75.66;100861.38;5041073;28;20037;-57
2022/01/23 12:36:34;;;;;;;28.02;17.55;;;;;;;-1.91;75.05;100819.47;5040581;28;20372;-57
2022/01/23 12:39:09;;;;;;;34.42;19.67;;;;;;;-1.63;75.11;100869.00;5069907;28;20052;-56
2022/01/23 12:41:39;;;;;;;29.92;17.30;;;;;;;-1.94;74.81;100805.75;5038296;28;20226;-55
2022/01/23 12:44:29;;;;;;;32.13;18.63;;;;;;;-1.94;75.30;100813.34;5040980;28;20033;-55
2022/01/23 12:47:01;;;;;;;29.77;17.67;;;;;;;-1.75;75.98;100882.00;5041972;28;20033;-55
2022/01/23 12:49:46;;;;;;;31.23;19.05;;;;;;;-2.14;75.20;100820.91;5040187;28;20326;-56
2022/01/23 12:52:16;;;;;;;28.23;17.48;;;;;;;-2.15;76.54;100814.09;5040317;28;20045;-56
2022/01/23 12:54:47;;;;;;;27.27;16.77;;;;;;;-1.75;75.41;100891.28;5041466;28;20025;-55
2022/01/23 12:57:24;;;;;;;26.38;17.50;;;;;;;-2.05;75.56;100825.56;5040733;28;20087;-55
2022/01/23 12:59:57;;;;;;;29.58;17.30;;;;;;;-2.09;74.94;100816.06;5039258;28;20025;-56
2022/01/23 13:02:25;;;;;;;30.65;18.67;;;;;;;-1.80;74.32;100892.72;5042802;28;20322;-55
2022/01/23 13:04:52;;;;;;;30.23;18.40;;;;;;;-1.73;76.14;100894.75;5040666;28;20045;-56
2022/01/23 13:10:04;;;;;;;33.25;19.05;;;;;;;-1.82;75.00;100909.56;5040664;28;20033;-56
2022/01/23 13:31:45;;;;;;;27.95;18.88;;;;;;;-1.98;76.73;100920.59;5039253;28;20033;-55
2022/01/23 13:34:31;;;;;;;27.75;18.02;;;;;;;-1.97;75.82;100925.75;5056261;28;20041;-55
2022/01/23 13:37:12;;;;;;;30.23;18.25;;;;;;;-1.96;76.64;100942.75;5074166;28;20082;-58
2022/01/23 13:39:46;;;;;;;32.40;18.15;;;;;;;-1.99;75.84;100967.13;5050699;28;20030;-57
2022/01/23 14:02:17;;;;;;;31.20;18.73;;;;;;;-2.37;76.10;100983.78;5048850;28;20383;-56
2022/01/23 14:04:54;;;;;;;32.78;18.95;;;;;;;-2.33;76.61;100986.56;5047339;28;20042;-56
2022/01/23 14:07:22;;;;;;;30.48;19.40;;;;;;;-2.80;76.49;100951.97;5047484;28;20089;-55
2022/01/23 14:09:47;;;;;;;32.08;20.13;;;;;;;-2.88;77.47;100964.25;5053602;28;20033;-55
2022/01/23 14:12:16;;;;;;;34.22;18.70;;;;;;;-2.90;78.41;100975.09;5045328;28;20075;-56
2022/01/23 14:15:08;;;;;;;33.97;19.67;;;;;;;-3.09;78.38;100994.38;5042680;28;20326;-54
2022/01/23 14:17:39;;;;;;;29.05;18.52;;;;;;;-3.07;79.11;100990.25;5044466;28;20036;-55
2022/01/23 14:20:08;;;;;;;34.08;20.52;;;;;;;-3.10;79.01;100999.34;5043908;28;20031;-56
2022/01/23 14:22:39;;;;;;;36.72;20.65;;;;;;;-2.89;79.01;101002.16;5044932;28;20346;-57
2022/01/23 14:25:28;;;;;;;35.47;20.23;;;;;;;-2.75;79.21;101007.97;5044468;28;20068;-56
2022/01/23 14:27:59;;;;;;;34.25;20.08;;;;;;;-2.89;78.05;101018.25;5045475;28;20075;-57
2022/01/23 14:30:27;;;;;;;32.88;20.73;;;;;;;-2.88;78.37;101017.47;5043432;28;20069;-55
2022/01/23 14:32:54;;;;;;;35.33;21.23;;;;;;;-2.75;77.76;101025.72;5042279;28;20049;-56
2022/01/23 14:35:26;;;;;;;36.28;22.38;;;;;;;-3.09;78.41;100960.53;5044551;28;20133;-55
2022/01/23 14:37:52;;;;;;;35.85;21.38;;;;;;;-2.87;77.40;101023.41;5046104;28;20096;-57
2022/01/23 14:40:21;;;;;;;34.65;19.70;;;;;;;-2.68;77.53;101043.91;5045512;28;20033;-55
2022/01/23 14:43:11;;;;;;;32.90;18.30;;;;;;;-2.70;77.22;101059.81;5047802;28;20052;-56
2022/01/23 14:45:42;;;;;;;30.05;19.02;;;;;;;-2.61;77.46;101073.88;5042138;28;20033;-58
2022/01/23 14:48:10;;;;;;;32.80;20.13;;;;;;;-2.55;78.30;101097.78;5045488;28;20036;-58
2022/01/23 14:50:39;;;;;;;31.95;19.05;;;;;;;-2.58;77.77;101092.56;5041849;28;20040;-57
2022/01/23 14:53:16;;;;;;;33.17;20.20;;;;;;;-2.81;78.16;101044.00;5043558;28;20303;-56
2022/01/23 14:55:50;;;;;;;35.38;18.85;;;;;;;-3.13;77.67;101017.78;5044483;28;20037;-56
2022/01/23 14:58:20;;;;;;;32.33;19.48;;;;;;;-2.65;78.11;101088.81;5053458;28;20025;-58
2022/01/23 15:00:49;;;;;;;33.55;19.00;;;;;;;-2.73;77.62;101082.47;5048223;28;20033;-56
2022/01/23 15:03:17;;;;;;;30.67;18.15;;;;;;;-3.00;78.16;101098.75;5060770;28;20230;-56
2022/01/23 15:05:42;;;;;;;29.33;17.85;;;;;;;-3.01;78.08;101098.66;5044455;28;20048;-56
2022/01/23 15:08:12;;;;;;;31.55;18.55;;;;;;;-2.73;78.37;101115.44;5057769;28;20024;-56